createdAt,value
2019-04-04T00:01:37.024Z,40.60
2019-04-04T00:04:07.057Z,40.80
2019-04-04T00:06:37.133Z,41.30
2019-04-04T00:09:10.711Z,41.30
2019-04-04T00:11:40.734Z,41.70
2019-04-04T00:14:12.634Z,41.90
2019-04-04T00:16:46.683Z,42.00
2019-04-04T00:19:16.757Z,42.20
2019-04-04T00:21:46.946Z,41.90
2019-04-04T00:24:16.991Z,41.80
2019-04-04T00:26:47.053Z,41.80
2019-04-04T00:29:17.799Z,41.60
2019-04-04T00:31:49.509Z,41.40
2019-04-04T00:34:19.640Z,41.20
2019-04-04T00:36:49.732Z,41.40
2019-04-04T00:39:19.800Z,41.10
2019-04-04T00:41:49.887Z,41.10
2019-04-04T00:44:21.045Z,41.20
2019-04-04T00:46:51.994Z,40.70
2019-04-04T00:49:22.053Z,40.40
2019-04-04T00:51:52.054Z,40.30
2019-04-04T00:54:22.307Z,40.40
2019-04-04T00:56:52.468Z,40.40
2019-04-04T00:59:23.052Z,40.40
2019-04-04T01:01:55.102Z,40.40
2019-04-04T01:04:25.506Z,40.30
2019-04-04T01:06:55.564Z,40.30
2019-04-04T01:09:25.631Z,40.20
2019-04-04T01:11:55.694Z,40.10
2019-04-04T01:14:28.895Z,40.20
2019-04-04T01:16:57.792Z,40.30
2019-04-04T01:19:27.896Z,39.70
2019-04-04T01:21:58.050Z,40.00
2019-04-04T01:24:29.126Z,39.80
2019-04-04T01:26:59.956Z,39.90
2019-04-04T01:29:30.140Z,39.60
2019-04-04T01:32:00.296Z,39.50
2019-04-04T01:34:30.872Z,40.30
2019-04-04T01:37:01.038Z,39.90
2019-04-04T01:39:31.913Z,40.20
2019-04-04T01:42:02.409Z,40.30
2019-04-04T01:44:32.456Z,40.30
2019-04-04T01:47:02.598Z,40.60
2019-04-04T01:49:32.588Z,40.40
2019-04-04T01:52:02.784Z,40.90
2019-04-04T01:54:32.858Z,40.90
2019-04-04T01:57:03.041Z,40.80
2019-04-04T01:59:33.146Z,40.40
2019-04-04T02:02:03.150Z,40.60
2019-04-04T02:04:33.229Z,40.50
2019-04-04T02:07:03.474Z,40.80
2019-04-04T02:09:34.539Z,40.50
2019-04-04T02:12:08.523Z,40.30
2019-04-04T02:14:38.691Z,40.20
2019-04-04T02:17:24.001Z,40.20
2019-04-04T02:19:56.270Z,40.90
2019-04-04T02:22:25.888Z,41.10
2019-04-04T02:24:56.007Z,40.90
2019-04-04T02:27:26.046Z,40.90
2019-04-04T02:30:21.120Z,40.80
2019-04-04T02:33:00.458Z,40.80
2019-04-04T02:35:28.952Z,40.90
2019-04-04T02:38:01.736Z,41.20
2019-04-04T02:40:41.899Z,41.20
2019-04-04T02:43:15.123Z,41.20
2019-04-04T02:45:51.022Z,41.40
2019-04-04T02:48:23.741Z,41.50
2019-04-04T02:51:34.155Z,41.50
2019-04-04T02:54:07.061Z,41.60
2019-04-04T02:56:53.796Z,41.90
2019-04-04T02:59:23.857Z,41.60
2019-04-04T03:02:04.689Z,42.10
2019-04-04T03:04:33.170Z,41.60
2019-04-04T03:07:12.175Z,41.40
2019-04-04T03:09:43.677Z,41.30
2019-04-04T03:12:14.244Z,41.40
2019-04-04T03:14:44.471Z,42.00
2019-04-04T03:17:32.652Z,41.60
2019-04-04T03:20:01.092Z,41.60
2019-04-04T03:22:31.174Z,41.90
2019-04-04T03:25:01.327Z,41.60
2019-04-04T03:27:31.478Z,41.80
2019-04-04T03:30:01.776Z,41.90
2019-04-04T03:32:31.991Z,41.90
2019-04-04T03:35:02.253Z,42.00
2019-04-04T03:37:32.442Z,42.30
2019-04-04T03:40:02.496Z,42.60
2019-04-04T03:42:32.552Z,42.30
2019-04-04T03:45:02.584Z,42.50
2019-04-04T03:47:32.566Z,42.60
2019-04-04T03:50:02.531Z,43.20
2019-04-04T03:52:32.675Z,43.20
2019-04-04T03:55:02.786Z,43.70
2019-04-04T03:58:00.457Z,43.90
2019-04-04T04:00:31.478Z,43.80
2019-04-04T04:03:22.755Z,43.90
2019-04-04T04:05:51.842Z,44.00
2019-04-04T04:08:22.295Z,44.20
2019-04-04T04:10:54.971Z,44.50
2019-04-04T04:13:24.805Z,44.40
2019-04-04T04:15:54.439Z,44.50
2019-04-04T04:18:24.119Z,44.50
2019-04-04T04:20:53.766Z,44.70
2019-04-04T04:23:24.283Z,45.00
2019-04-04T04:25:54.154Z,44.60
2019-04-04T04:28:23.895Z,44.50
2019-04-04T04:30:53.708Z,44.10
2019-04-04T04:33:23.444Z,44.70
2019-04-04T04:35:53.203Z,44.10
2019-04-04T04:38:25.581Z,44.20
2019-04-04T04:40:54.252Z,44.20
2019-04-04T04:43:23.997Z,44.30
2019-04-04T04:45:53.628Z,44.20
2019-04-04T04:48:25.952Z,44.30
2019-04-04T04:50:54.739Z,44.80
2019-04-04T04:53:24.499Z,43.70
2019-04-04T04:55:54.173Z,42.70
2019-04-04T04:58:23.879Z,41.90
2019-04-04T05:00:53.548Z,41.10
2019-04-04T05:03:24.259Z,40.60
2019-04-04T05:05:54.773Z,40.00
2019-04-04T05:08:24.516Z,38.50
2019-04-04T05:10:54.232Z,38.30
2019-04-04T05:13:25.100Z,37.50
2019-04-04T05:15:55.418Z,37.10
2019-04-04T05:18:28.058Z,36.20
2019-04-04T05:21:01.567Z,35.70
2019-04-04T05:23:31.913Z,34.70
2019-04-04T05:26:03.068Z,34.00
2019-04-04T05:28:32.968Z,32.90
2019-04-04T05:31:02.893Z,32.20
2019-04-04T05:33:32.709Z,31.00
2019-04-04T05:36:04.820Z,30.40
2019-04-04T05:38:34.133Z,29.40
2019-04-04T05:41:04.004Z,28.90
2019-04-04T05:43:37.074Z,28.20
2019-04-04T05:46:05.179Z,27.50
2019-04-04T05:48:34.863Z,26.50
2019-04-04T05:51:04.576Z,26.00
2019-04-04T05:53:35.419Z,25.10
2019-04-04T05:56:06.518Z,24.20
2019-04-04T05:58:36.570Z,23.20
2019-04-04T06:01:07.263Z,23.90
2019-04-04T06:03:37.101Z,22.60
2019-04-04T06:06:06.916Z,22.10
2019-04-04T06:08:38.810Z,21.90
2019-04-04T06:11:07.903Z,21.80
2019-04-04T06:13:37.551Z,20.90
2019-04-04T06:16:07.262Z,20.30
2019-04-04T06:18:36.991Z,19.30
2019-04-04T06:21:06.837Z,18.80
2019-04-04T06:23:36.528Z,18.90
2019-04-04T06:26:07.590Z,19.50
2019-04-04T06:28:37.504Z,19.90
2019-04-04T06:31:07.199Z,19.10
2019-04-04T06:33:37.849Z,19.70
2019-04-04T06:36:07.637Z,19.60
2019-04-04T06:38:37.295Z,19.30
2019-04-04T06:41:07.008Z,18.70
2019-04-04T06:43:36.739Z,17.30
2019-04-04T06:46:08.811Z,19.10
2019-04-04T06:48:38.526Z,17.80
2019-04-04T06:51:08.245Z,18.60
2019-04-04T06:53:37.988Z,18.60
2019-04-04T06:56:07.685Z,18.00
2019-04-04T06:58:40.055Z,18.60
2019-04-04T07:01:11.097Z,17.80
2019-04-04T07:03:40.474Z,17.50
2019-04-04T07:06:10.826Z,17.70
2019-04-04T07:08:40.676Z,18.10
2019-04-04T07:11:20.912Z,18.20
2019-04-04T07:13:42.967Z,18.30
2019-04-04T07:16:12.809Z,17.10
2019-04-04T07:18:42.993Z,17.30
2019-04-04T07:21:13.452Z,18.00
2019-04-04T07:23:43.159Z,18.70
2019-04-04T07:26:14.813Z,17.90
2019-04-04T07:28:44.276Z,18.10
2019-04-04T07:31:16.275Z,18.70
2019-04-04T07:33:46.072Z,18.60
2019-04-04T07:36:15.779Z,17.40
2019-04-04T07:38:45.512Z,17.90
2019-04-04T07:41:15.165Z,18.40
2019-04-04T07:43:44.900Z,18.50
2019-04-04T07:46:16.874Z,18.30
2019-04-04T07:48:45.986Z,17.90
2019-04-04T07:51:15.795Z,17.50
2019-04-04T07:53:45.511Z,16.80
2019-04-04T07:56:15.169Z,16.10
2019-04-04T07:58:44.895Z,16.50
2019-04-04T08:01:14.617Z,15.80
2019-04-04T08:03:44.332Z,15.20
2019-04-04T08:06:13.976Z,16.50
2019-04-04T08:08:43.643Z,16.10
2019-04-04T08:11:13.545Z,15.80
2019-04-04T08:13:43.310Z,14.80
2019-04-04T08:16:13.056Z,14.00
2019-04-04T08:18:42.711Z,15.30
2019-04-04T08:21:12.517Z,15.40
2019-04-04T08:23:42.212Z,16.00
2019-04-04T08:26:11.985Z,16.00
2019-04-04T08:28:41.945Z,15.60
2019-04-04T08:31:11.870Z,14.20
2019-04-04T08:33:43.602Z,14.70
2019-04-04T08:36:13.355Z,15.00
2019-04-04T08:38:43.086Z,14.10
2019-04-04T08:41:12.820Z,13.40
2019-04-04T08:43:42.531Z,12.50
2019-04-04T08:46:12.314Z,14.40
2019-04-04T08:48:41.996Z,15.80
2019-04-04T08:51:11.807Z,13.70
2019-04-04T08:53:41.460Z,14.80
2019-04-04T08:56:11.136Z,15.30
2019-04-04T08:58:41.806Z,14.30
2019-04-04T09:01:11.538Z,15.90
2019-04-04T09:03:41.169Z,15.60
2019-04-04T09:06:10.862Z,16.10
2019-04-04T09:08:40.507Z,16.10
2019-04-04T09:11:10.253Z,15.30
2019-04-04T09:13:39.883Z,15.20
2019-04-04T09:16:09.651Z,16.10
2019-04-04T09:18:39.338Z,16.50
2019-04-04T09:21:09.035Z,17.40
2019-04-04T09:23:38.651Z,18.60
2019-04-04T09:26:08.388Z,20.30
2019-04-04T09:28:38.028Z,21.10
2019-04-04T09:31:07.711Z,22.10
2019-04-04T09:33:37.398Z,22.70
2019-04-04T09:36:07.150Z,23.10
2019-04-04T09:38:36.813Z,23.30
2019-04-04T09:41:06.485Z,23.40
2019-04-04T09:43:36.288Z,23.60
2019-04-04T09:46:06.030Z,23.40
2019-04-04T09:48:35.741Z,23.10
2019-04-04T09:51:05.448Z,23.70
2019-04-04T09:53:35.163Z,23.10
2019-04-04T09:56:04.994Z,23.90
2019-04-04T09:58:34.707Z,24.40
2019-04-04T10:01:06.577Z,24.20
2019-04-04T10:03:36.156Z,24.10
2019-04-04T10:06:05.897Z,23.90
2019-04-04T10:08:38.662Z,24.20
2019-04-04T10:11:07.080Z,24.00
2019-04-04T10:13:36.846Z,23.60
2019-04-04T10:16:06.824Z,24.00
2019-04-04T10:18:36.491Z,24.20
2019-04-04T10:21:12.109Z,24.00
2019-04-04T10:23:37.542Z,23.30
2019-04-04T10:26:07.451Z,23.60
2019-04-04T10:28:37.106Z,23.80
2019-04-04T10:31:06.732Z,23.40
2019-04-04T10:33:36.482Z,23.70
2019-04-04T10:36:06.246Z,23.10
2019-04-04T10:38:35.931Z,21.30
2019-04-04T10:41:05.660Z,21.80
2019-04-04T10:43:35.349Z,21.70
2019-04-04T10:46:05.058Z,21.60
2019-04-04T10:48:34.746Z,21.80
2019-04-04T10:51:04.425Z,21.90
2019-04-04T10:53:34.353Z,21.20
2019-04-04T10:56:04.128Z,21.10
2019-04-04T10:58:33.866Z,21.50
2019-04-04T11:01:03.506Z,21.70
2019-04-04T11:03:33.222Z,21.20
2019-04-04T11:06:02.870Z,21.70
2019-04-04T11:08:32.543Z,21.20
2019-04-04T11:11:02.228Z,21.10
2019-04-04T11:13:33.802Z,21.10
2019-04-04T11:16:03.314Z,21.00
2019-04-04T11:18:33.170Z,20.90
2019-04-04T11:21:02.779Z,21.40
2019-04-04T11:23:32.566Z,20.70
2019-04-04T11:26:02.228Z,20.80
2019-04-04T11:28:31.928Z,21.40
2019-04-04T11:31:01.542Z,21.00
2019-04-04T11:33:31.339Z,20.70
2019-04-04T11:36:01.027Z,21.10
2019-04-04T11:38:30.767Z,21.20
2019-04-04T11:41:00.448Z,20.80
2019-04-04T11:43:30.166Z,20.80
2019-04-04T11:46:09.662Z,20.40
2019-04-04T11:48:41.158Z,20.50
2019-04-04T11:51:10.837Z,21.50
2019-04-04T11:53:40.567Z,20.50
2019-04-04T11:56:10.240Z,20.50
2019-04-04T11:58:39.958Z,21.30
2019-04-04T12:01:11.096Z,21.20
2019-04-04T12:03:40.824Z,21.30
2019-04-04T12:06:10.485Z,20.70
2019-04-04T12:08:40.236Z,20.90
2019-04-04T12:11:09.873Z,20.70
2019-04-04T12:13:39.635Z,20.50
2019-04-04T12:16:09.358Z,20.80
2019-04-04T12:18:39.080Z,21.20
2019-04-04T12:21:08.720Z,20.90
2019-04-04T12:23:38.403Z,20.80
2019-04-04T12:26:08.034Z,20.40
2019-04-04T12:28:37.763Z,20.70
2019-04-04T12:31:07.386Z,20.20
2019-04-04T12:33:37.077Z,20.20
2019-04-04T12:36:07.180Z,19.90
2019-04-04T12:38:36.867Z,20.40
2019-04-04T12:41:06.511Z,20.20
2019-04-04T12:43:39.205Z,20.50
2019-04-04T12:46:08.928Z,20.50
2019-04-04T12:48:38.692Z,20.50
2019-04-04T12:51:08.355Z,20.40
2019-04-04T12:53:38.076Z,20.40
2019-04-04T12:56:07.763Z,20.70
2019-04-04T12:58:37.489Z,20.10
2019-04-04T13:01:07.229Z,20.10
2019-04-04T13:03:36.939Z,20.10
2019-04-04T13:06:06.670Z,20.10
2019-04-04T13:08:36.573Z,20.10
2019-04-04T13:11:06.319Z,20.00
2019-04-04T13:13:38.125Z,20.00
2019-04-04T13:16:07.331Z,20.30
2019-04-04T13:18:37.024Z,20.00
2019-04-04T13:21:07.068Z,20.10
2019-04-04T13:23:36.978Z,19.90
2019-04-04T13:26:06.602Z,20.00
2019-04-04T13:28:37.689Z,19.90
2019-04-04T13:31:07.352Z,20.00
2019-04-04T13:33:37.137Z,19.90
2019-04-04T13:36:06.797Z,19.90
2019-04-04T13:38:36.544Z,19.90
2019-04-04T13:41:06.290Z,19.40
2019-04-04T13:43:36.106Z,19.50
2019-04-04T13:46:05.796Z,19.60
2019-04-04T13:48:35.579Z,19.90
2019-04-04T13:51:08.416Z,20.50
2019-04-04T13:53:38.117Z,20.40
2019-04-04T13:56:07.809Z,19.50
2019-04-04T13:58:37.492Z,19.00
2019-04-04T14:01:07.240Z,19.80
2019-04-04T14:03:36.976Z,19.90
2019-04-04T14:06:06.603Z,20.40
2019-04-04T14:08:39.149Z,20.40
2019-04-04T14:11:07.718Z,20.90
2019-04-04T14:13:37.526Z,19.80
2019-04-04T14:16:07.265Z,19.80
2019-04-04T14:18:39.738Z,19.40
2019-04-04T14:21:08.470Z,19.00
2019-04-04T14:23:38.257Z,19.30
2019-04-04T14:26:09.890Z,19.70
2019-04-04T14:28:39.552Z,19.10
2019-04-04T14:31:10.762Z,19.90
2019-04-04T14:33:40.599Z,19.80
2019-04-04T14:36:10.324Z,19.70
2019-04-04T14:38:40.008Z,20.10
2019-04-04T14:41:11.375Z,19.80
2019-04-04T14:43:41.037Z,19.70
2019-04-04T14:46:10.727Z,19.60
2019-04-04T14:48:42.955Z,20.10
2019-04-04T14:51:11.839Z,20.40
2019-04-04T14:53:41.578Z,20.00
2019-04-04T14:56:11.432Z,20.10
2019-04-04T14:58:41.115Z,20.10
2019-04-04T15:01:12.261Z,20.00
2019-04-04T15:03:42.364Z,20.60
2019-04-04T15:06:12.320Z,20.40
2019-04-04T15:08:41.945Z,20.40
2019-04-04T15:11:23.526Z,20.40
2019-04-04T15:13:43.159Z,20.70
2019-04-04T15:16:17.609Z,21.00
2019-04-04T15:18:47.342Z,20.30
2019-04-04T15:21:17.535Z,20.40
2019-04-04T15:23:47.291Z,20.40
2019-04-04T15:26:16.991Z,21.10
2019-04-04T15:28:46.717Z,21.20
2019-04-04T15:31:16.492Z,21.10
2019-04-04T15:33:46.150Z,21.60
2019-04-04T15:36:15.952Z,21.00
2019-04-04T15:38:45.651Z,21.70
2019-04-04T15:41:15.380Z,21.40
2019-04-04T15:43:47.136Z,21.40
2019-04-04T15:46:19.481Z,22.00
2019-04-04T15:48:49.303Z,22.10
2019-04-04T15:51:18.989Z,22.40
2019-04-04T15:53:48.619Z,22.10
2019-04-04T15:56:18.307Z,22.10
2019-04-04T15:58:47.942Z,22.30
2019-04-04T16:01:17.633Z,22.70
2019-04-04T16:06:48.110Z,22.70
2019-04-04T16:09:17.767Z,22.50
2019-04-04T16:11:49.633Z,23.00
2019-04-04T16:14:18.765Z,22.70
2019-04-04T16:16:48.458Z,23.10
2019-04-04T16:19:18.079Z,22.60
2019-04-04T16:21:47.799Z,22.50
2019-04-04T16:24:17.505Z,22.00
2019-04-04T16:26:47.251Z,22.00
2019-04-04T16:29:16.920Z,22.30
2019-04-04T16:31:46.703Z,22.40
2019-04-04T16:34:46.805Z,22.30
2019-04-04T16:37:16.582Z,22.80
2019-04-04T16:39:46.229Z,22.60
2019-04-04T16:42:16.220Z,22.80
2019-04-04T16:44:47.062Z,23.00
2019-04-04T16:47:17.451Z,23.20
2019-04-04T16:49:49.923Z,23.40
2019-04-04T16:52:19.652Z,23.20
2019-04-04T16:54:49.287Z,23.40
2019-04-04T16:57:18.951Z,23.30
2019-04-04T16:59:48.605Z,23.20
2019-04-04T17:02:18.295Z,23.30
2019-04-04T17:04:49.697Z,23.70
2019-04-04T17:07:19.404Z,24.10
2019-04-04T17:09:49.032Z,24.10
2019-04-04T17:12:18.717Z,24.50
2019-04-04T17:14:48.363Z,24.70
2019-04-04T17:17:18.050Z,24.60
2019-04-04T17:19:47.707Z,24.30
2019-04-04T17:22:17.395Z,24.30
2019-04-04T17:24:47.111Z,24.20
2019-04-04T17:27:16.798Z,24.50
2019-04-04T17:29:46.587Z,24.10
2019-04-04T17:32:20.651Z,24.20
2019-04-04T17:34:50.382Z,24.30
2019-04-04T17:37:20.201Z,24.30
2019-04-04T17:39:50.134Z,24.60
2019-04-04T17:42:29.211Z,24.30
2019-04-04T17:44:53.184Z,24.60
2019-04-04T17:47:25.026Z,24.40
2019-04-04T17:50:01.773Z,24.40
2019-04-04T17:52:39.444Z,25.10
2019-04-04T17:55:10.284Z,25.00
2019-04-04T17:57:41.000Z,25.20
2019-04-04T18:00:13.734Z,25.20
2019-04-04T18:02:43.839Z,25.20
2019-04-04T18:05:15.374Z,25.60
2019-04-04T18:07:46.878Z,25.90
2019-04-04T18:10:18.449Z,26.10
2019-04-04T18:12:48.346Z,26.40
2019-04-04T18:15:18.275Z,26.60
2019-04-04T18:17:48.100Z,26.80
2019-04-04T18:20:18.156Z,27.00
2019-04-04T18:22:48.030Z,27.20
2019-04-04T18:25:17.842Z,27.50
2019-04-04T18:27:47.857Z,27.70
2019-04-04T18:30:17.710Z,27.90
2019-04-04T18:32:47.765Z,28.00
2019-04-04T18:35:17.813Z,27.90
2019-04-04T18:37:48.190Z,28.10
2019-04-04T18:40:18.240Z,28.10
2019-04-04T18:42:53.627Z,27.80
2019-04-04T18:45:19.697Z,28.00
2019-04-04T18:47:49.734Z,28.10
2019-04-04T18:50:19.617Z,27.90
2019-04-04T18:52:49.388Z,27.60
2019-04-04T18:55:20.968Z,27.50
2019-04-04T18:57:50.730Z,27.70
2019-04-04T19:00:20.601Z,27.70
2019-04-04T19:02:50.328Z,27.70
2019-04-04T19:05:20.213Z,27.90
2019-04-04T19:07:49.914Z,27.90
2019-04-04T19:10:19.775Z,28.30
2019-04-04T19:12:49.675Z,28.50
2019-04-04T19:15:19.358Z,28.60
2019-04-04T19:17:49.077Z,28.80
2019-04-04T19:20:19.115Z,29.00
2019-04-04T19:22:48.911Z,29.20
2019-04-04T19:25:18.969Z,29.50
2019-04-04T19:27:48.731Z,29.70
2019-04-04T19:30:20.184Z,29.40
2019-04-04T19:32:49.883Z,29.80
2019-04-04T19:35:19.675Z,29.60
2019-04-04T19:37:59.418Z,29.80
2019-04-04T19:40:20.916Z,29.90
2019-04-04T19:42:50.711Z,29.50
2019-04-04T19:45:21.459Z,29.30
2019-04-04T19:47:51.427Z,29.30
2019-04-04T19:50:21.130Z,29.40
2019-04-04T19:52:50.895Z,29.40
2019-04-04T19:55:20.571Z,29.60
2019-04-04T19:57:50.288Z,29.40
2019-04-04T20:00:20.234Z,29.70
2019-04-04T20:02:49.930Z,29.80
2019-04-04T20:05:19.604Z,30.00
2019-04-04T20:07:49.338Z,30.30
2019-04-04T20:10:19.221Z,30.10
2019-04-04T20:12:48.947Z,30.20
2019-04-04T20:15:18.607Z,30.50
2019-04-04T20:17:48.287Z,30.30
2019-04-04T20:20:18.142Z,30.10
2019-04-04T20:22:47.979Z,30.00
2019-04-04T20:25:17.819Z,29.60
2019-04-04T20:27:54.770Z,29.50
2019-04-04T20:30:23.903Z,29.40
2019-04-04T20:32:53.610Z,28.90
2019-04-04T20:35:23.383Z,28.80
2019-04-04T20:37:53.193Z,28.60
2019-04-04T20:40:22.880Z,28.90
2019-04-04T20:42:52.562Z,28.40
2019-04-04T20:45:22.266Z,28.40
2019-04-04T20:47:52.078Z,28.50
2019-04-04T20:50:24.063Z,28.70
2019-04-04T20:52:54.127Z,28.70
2019-04-04T20:55:24.900Z,29.00
2019-04-04T20:57:54.565Z,29.40
2019-04-04T21:00:24.237Z,29.70
2019-04-04T21:02:53.900Z,29.90
2019-04-04T21:05:25.401Z,30.20
2019-04-04T21:07:55.048Z,30.40
2019-04-04T21:10:24.723Z,30.60
2019-04-04T21:12:54.363Z,31.10
2019-04-04T21:15:24.070Z,31.20
2019-04-04T21:17:53.780Z,31.10
2019-04-04T21:20:23.532Z,31.00
2019-04-04T21:22:53.197Z,31.20
2019-04-04T21:25:22.961Z,31.10
2019-04-04T21:27:52.627Z,31.40
2019-04-04T21:30:23.654Z,31.40
2019-04-04T21:32:54.868Z,30.90
2019-04-04T21:35:24.711Z,31.00
2019-04-04T21:37:54.355Z,31.00
2019-04-04T21:40:24.063Z,30.80
2019-04-04T21:42:55.271Z,31.00
2019-04-04T21:45:25.211Z,31.30
2019-04-04T21:47:56.343Z,31.60
2019-04-04T21:50:26.258Z,31.90
2019-04-04T21:52:55.937Z,32.30
2019-04-04T21:55:25.671Z,32.80
2019-04-04T21:57:55.471Z,33.10
2019-04-04T22:00:27.217Z,33.70
2019-04-04T22:02:57.010Z,33.50
2019-04-04T22:05:26.840Z,33.70
2019-04-04T22:07:56.561Z,33.60
2019-04-04T22:10:29.147Z,33.80
2019-04-04T22:12:59.305Z,34.20
2019-04-04T22:15:29.405Z,34.20
2019-04-04T22:17:59.821Z,34.10
2019-04-04T22:20:29.943Z,34.40
2019-04-04T22:23:02.221Z,34.40
2019-04-04T22:25:32.724Z,34.60
2019-04-04T22:28:03.708Z,34.40
2019-04-04T22:30:34.524Z,34.70
2019-04-04T22:33:05.207Z,34.60
2019-04-04T22:35:38.057Z,34.80
2019-04-04T22:38:08.271Z,34.80
2019-04-04T22:40:38.426Z,34.70
2019-04-04T22:43:08.750Z,34.60
2019-04-04T22:45:38.941Z,34.90
2019-04-04T22:48:09.095Z,34.60
2019-04-04T22:50:39.295Z,34.40
2019-04-04T22:53:09.500Z,34.20
2019-04-04T22:55:39.674Z,34.10
2019-04-04T22:58:28.060Z,34.20
2019-04-04T23:00:54.383Z,34.10
2019-04-04T23:03:25.868Z,34.00
2019-04-04T23:05:55.927Z,33.80
2019-04-04T23:08:26.307Z,33.70
2019-04-04T23:10:59.024Z,33.90
2019-04-04T23:13:29.155Z,33.80
2019-04-04T23:16:00.158Z,34.10
2019-04-04T23:18:30.645Z,33.90
2019-04-04T23:21:00.694Z,33.90
2019-04-04T23:23:34.680Z,33.70
2019-04-04T23:26:04.929Z,33.80
2019-04-04T23:28:34.873Z,33.80
2019-04-04T23:31:04.949Z,34.00
2019-04-04T23:33:34.973Z,33.90
2019-04-04T23:36:05.110Z,34.00
2019-04-04T23:38:35.184Z,33.70
2019-04-04T23:41:08.274Z,33.90
2019-04-04T23:43:38.307Z,33.80
2019-04-04T23:46:08.420Z,33.90
2019-04-04T23:48:38.389Z,33.90
2019-04-04T23:51:08.390Z,33.90
2019-04-04T23:53:38.646Z,33.80
2019-04-04T23:56:10.849Z,33.80
2019-04-04T23:58:40.656Z,33.90
